sensor_id;sensor_type;location;lat;lon;timestamp;P1;durP1;ratioP1;P2;durP2;ratioP2
21152;SDS011;10734;44.792;20.482;2022-07-29T00:02:26;15.75;;;8.38;;
21152;SDS011;10734;44.792;20.482;2022-07-29T00:04:54;13.13;;;7.53;;
21152;SDS011;10734;44.792;20.482;2022-07-29T00:07:20;16.65;;;7.95;;
21152;SDS011;10734;44.792;20.482;2022-07-29T00:09:47;15.35;;;7.75;;
21152;SDS011;10734;44.792;20.482;2022-07-29T00:12:17;14.05;;;7.68;;
21152;SDS011;10734;44.792;20.482;2022-07-29T00:14:51;13.30;;;7.88;;
21152;SDS011;10734;44.792;20.482;2022-07-29T00:17:19;18.25;;;7.35;;
21152;SDS011;10734;44.792;20.482;2022-07-29T00:19:46;17.02;;;7.43;;
21152;SDS011;10734;44.792;20.482;2022-07-29T00:22:12;15.85;;;7.95;;
21152;SDS011;10734;44.792;20.482;2022-07-29T00:24:39;22.20;;;7.78;;
21152;SDS011;10734;44.792;20.482;2022-07-29T00:27:05;14.25;;;7.32;;
21152;SDS011;10734;44.792;20.482;2022-07-29T00:29:32;9.32;;;7.13;;
21152;SDS011;10734;44.792;20.482;2022-07-29T00:32:00;12.13;;;7.80;;
21152;SDS011;10734;44.792;20.482;2022-07-29T00:34:27;16.50;;;7.63;;
21152;SDS011;10734;44.792;20.482;2022-07-29T00:37:14;12.40;;;7.55;;
21152;SDS011;10734;44.792;20.482;2022-07-29T00:39:41;12.10;;;7.18;;
21152;SDS011;10734;44.792;20.482;2022-07-29T00:42:08;11.63;;;6.78;;
21152;SDS011;10734;44.792;20.482;2022-07-29T00:44:37;11.68;;;8.45;;
21152;SDS011;10734;44.792;20.482;2022-07-29T00:47:04;17.60;;;8.23;;
21152;SDS011;10734;44.792;20.482;2022-07-29T00:49:32;15.70;;;8.23;;
21152;SDS011;10734;44.792;20.482;2022-07-29T00:52:03;15.98;;;8.23;;
21152;SDS011;10734;44.792;20.482;2022-07-29T00:54:32;12.52;;;8.18;;
21152;SDS011;10734;44.792;20.482;2022-07-29T00:57:00;11.55;;;8.50;;
21152;SDS011;10734;44.792;20.482;2022-07-29T00:59:27;13.45;;;9.43;;
21152;SDS011;10734;44.792;20.482;2022-07-29T01:02:01;14.77;;;8.85;;
21152;SDS011;10734;44.792;20.482;2022-07-29T01:04:29;15.45;;;9.77;;
21152;SDS011;10734;44.792;20.482;2022-07-29T01:06:57;14.85;;;9.77;;
21152;SDS011;10734;44.792;20.482;2022-07-29T01:09:24;18.67;;;10.23;;
21152;SDS011;10734;44.792;20.482;2022-07-29T01:12:15;17.50;;;9.50;;
21152;SDS011;10734;44.792;20.482;2022-07-29T01:14:45;14.98;;;10.23;;
21152;SDS011;10734;44.792;20.482;2022-07-29T01:17:18;14.43;;;9.02;;
21152;SDS011;10734;44.792;20.482;2022-07-29T01:19:56;13.27;;;9.35;;
21152;SDS011;10734;44.792;20.482;2022-07-29T01:25:12;14.63;;;9.30;;
21152;SDS011;10734;44.792;20.482;2022-07-29T01:30:22;15.93;;;9.45;;
21152;SDS011;10734;44.792;20.482;2022-07-29T01:32:53;14.50;;;8.93;;
21152;SDS011;10734;44.792;20.482;2022-07-29T01:35:25;11.77;;;8.52;;
21152;SDS011;10734;44.792;20.482;2022-07-29T01:38:20;13.65;;;9.48;;
21152;SDS011;10734;44.792;20.482;2022-07-29T01:40:52;16.13;;;10.25;;
21152;SDS011;10734;44.792;20.482;2022-07-29T01:43:27;15.93;;;11.15;;
21152;SDS011;10734;44.792;20.482;2022-07-29T01:46:08;13.15;;;9.27;;
21152;SDS011;10734;44.792;20.482;2022-07-29T01:48:43;15.65;;;9.35;;
21152;SDS011;10734;44.792;20.482;2022-07-29T01:51:20;17.35;;;9.60;;
21152;SDS011;10734;44.792;20.482;2022-07-29T01:54:29;17.15;;;10.02;;
21152;SDS011;10734;44.792;20.482;2022-07-29T01:56:51;17.58;;;9.40;;
21152;SDS011;10734;44.792;20.482;2022-07-29T01:59:19;12.20;;;9.88;;
21152;SDS011;10734;44.792;20.482;2022-07-29T02:01:47;12.93;;;9.40;;
21152;SDS011;10734;44.792;20.482;2022-07-29T02:04:20;16.85;;;10.25;;
21152;SDS011;10734;44.792;20.482;2022-07-29T02:06:56;13.15;;;8.77;;
21152;SDS011;10734;44.792;20.482;2022-07-29T02:09:26;12.80;;;9.10;;
21152;SDS011;10734;44.792;20.482;2022-07-29T02:11:55;15.63;;;10.27;;
21152;SDS011;10734;44.792;20.482;2022-07-29T02:14:25;13.88;;;9.70;;
21152;SDS011;10734;44.792;20.482;2022-07-29T02:16:55;9.63;;;8.48;;
21152;SDS011;10734;44.792;20.482;2022-07-29T02:19:26;15.70;;;9.52;;
21152;SDS011;10734;44.792;20.482;2022-07-29T02:21:54;10.77;;;8.25;;
21152;SDS011;10734;44.792;20.482;2022-07-29T02:24:24;12.27;;;9.02;;
21152;SDS011;10734;44.792;20.482;2022-07-29T02:26:52;13.57;;;8.52;;
21152;SDS011;10734;44.792;20.482;2022-07-29T02:29:22;13.32;;;8.13;;
21152;SDS011;10734;44.792;20.482;2022-07-29T02:31:52;9.40;;;8.13;;
21152;SDS011;10734;44.792;20.482;2022-07-29T02:34:20;10.50;;;8.55;;
21152;SDS011;10734;44.792;20.482;2022-07-29T02:36:48;11.25;;;8.15;;
21152;SDS011;10734;44.792;20.482;2022-07-29T02:39:15;11.55;;;8.18;;
21152;SDS011;10734;44.792;20.482;2022-07-29T02:41:45;11.35;;;8.43;;
21152;SDS011;10734;44.792;20.482;2022-07-29T02:44:15;8.38;;;7.57;;
21152;SDS011;10734;44.792;20.482;2022-07-29T02:47:00;11.40;;;7.22;;
21152;SDS011;10734;44.792;20.482;2022-07-29T02:55:22;10.10;;;7.53;;
21152;SDS011;10734;44.792;20.482;2022-07-29T02:58:02;9.82;;;6.53;;
21152;SDS011;10734;44.792;20.482;2022-07-29T03:00:36;9.05;;;6.68;;
21152;SDS011;10734;44.792;20.482;2022-07-29T03:03:07;9.02;;;7.18;;
21152;SDS011;10734;44.792;20.482;2022-07-29T03:05:37;7.95;;;6.50;;
21152;SDS011;10734;44.792;20.482;2022-07-29T03:08:06;10.02;;;7.22;;
21152;SDS011;10734;44.792;20.482;2022-07-29T03:10:36;8.40;;;7.15;;
21152;SDS011;10734;44.792;20.482;2022-07-29T03:13:05;10.85;;;6.90;;
21152;SDS011;10734;44.792;20.482;2022-07-29T03:15:32;10.68;;;6.65;;
21152;SDS011;10734;44.792;20.482;2022-07-29T03:17:59;9.52;;;7.75;;
21152;SDS011;10734;44.792;20.482;2022-07-29T03:20:26;7.45;;;6.40;;
21152;SDS011;10734;44.792;20.482;2022-07-29T03:22:53;9.30;;;6.43;;
21152;SDS011;10734;44.792;20.482;2022-07-29T03:25:20;10.43;;;7.15;;
21152;SDS011;10734;44.792;20.482;2022-07-29T03:27:47;10.52;;;6.63;;
21152;SDS011;10734;44.792;20.482;2022-07-29T03:30:14;10.15;;;6.97;;
21152;SDS011;10734;44.792;20.482;2022-07-29T03:32:47;9.48;;;7.45;;
21152;SDS011;10734;44.792;20.482;2022-07-29T03:35:17;7.70;;;6.90;;
21152;SDS011;10734;44.792;20.482;2022-07-29T03:37:43;9.48;;;6.47;;
21152;SDS011;10734;44.792;20.482;2022-07-29T03:40:11;9.23;;;6.82;;
21152;SDS011;10734;44.792;20.482;2022-07-29T03:42:43;7.03;;;6.25;;
21152;SDS011;10734;44.792;20.482;2022-07-29T03:45:12;11.07;;;7.20;;
21152;SDS011;10734;44.792;20.482;2022-07-29T03:47:42;11.05;;;6.38;;
21152;SDS011;10734;44.792;20.482;2022-07-29T03:50:16;9.45;;;7.82;;
21152;SDS011;10734;44.792;20.482;2022-07-29T03:52:45;10.70;;;7.43;;
21152;SDS011;10734;44.792;20.482;2022-07-29T03:55:14;8.57;;;6.72;;
21152;SDS011;10734;44.792;20.482;2022-07-29T03:57:41;8.82;;;6.43;;
21152;SDS011;10734;44.792;20.482;2022-07-29T04:00:10;9.15;;;6.03;;
21152;SDS011;10734;44.792;20.482;2022-07-29T04:02:38;8.15;;;6.97;;
21152;SDS011;10734;44.792;20.482;2022-07-29T04:05:11;14.10;;;6.88;;
21152;SDS011;10734;44.792;20.482;2022-07-29T04:07:39;9.30;;;6.85;;
21152;SDS011;10734;44.792;20.482;2022-07-29T04:10:06;8.95;;;6.68;;
21152;SDS011;10734;44.792;20.482;2022-07-29T04:12:34;12.07;;;6.80;;
21152;SDS011;10734;44.792;20.482;2022-07-29T04:15:02;7.05;;;6.30;;
21152;SDS011;10734;44.792;20.482;2022-07-29T04:17:30;10.15;;;6.63;;
21152;SDS011;10734;44.792;20.482;2022-07-29T04:19:56;6.93;;;6.25;;
21152;SDS011;10734;44.792;20.482;2022-07-29T04:22:23;9.07;;;6.97;;
21152;SDS011;10734;44.792;20.482;2022-07-29T04:24:50;8.88;;;7.32;;
21152;SDS011;10734;44.792;20.482;2022-07-29T04:27:17;10.85;;;7.00;;
21152;SDS011;10734;44.792;20.482;2022-07-29T04:29:44;7.40;;;6.15;;
21152;SDS011;10734;44.792;20.482;2022-07-29T04:32:22;8.25;;;6.72;;
21152;SDS011;10734;44.792;20.482;2022-07-29T04:34:50;16.98;;;8.02;;
21152;SDS011;10734;44.792;20.482;2022-07-29T04:37:22;10.70;;;7.07;;
21152;SDS011;10734;44.792;20.482;2022-07-29T04:39:49;10.15;;;7.53;;
21152;SDS011;10734;44.792;20.482;2022-07-29T04:42:16;9.98;;;7.35;;
21152;SDS011;10734;44.792;20.482;2022-07-29T04:44:51;13.68;;;6.80;;
21152;SDS011;10734;44.792;20.482;2022-07-29T04:47:18;13.30;;;6.85;;
21152;SDS011;10734;44.792;20.482;2022-07-29T04:49:45;8.05;;;6.50;;
21152;SDS011;10734;44.792;20.482;2022-07-29T04:52:11;8.13;;;5.88;;
21152;SDS011;10734;44.792;20.482;2022-07-29T04:54:38;8.88;;;6.32;;
21152;SDS011;10734;44.792;20.482;2022-07-29T04:57:04;7.05;;;6.18;;
21152;SDS011;10734;44.792;20.482;2022-07-29T04:59:31;6.70;;;6.00;;
21152;SDS011;10734;44.792;20.482;2022-07-29T05:01:58;7.85;;;5.80;;
21152;SDS011;10734;44.792;20.482;2022-07-29T05:04:24;7.68;;;5.22;;
21152;SDS011;10734;44.792;20.482;2022-07-29T05:06:51;9.38;;;6.20;;
21152;SDS011;10734;44.792;20.482;2022-07-29T05:09:18;9.63;;;6.70;;
21152;SDS011;10734;44.792;20.482;2022-07-29T05:11:44;9.13;;;6.18;;
21152;SDS011;10734;44.792;20.482;2022-07-29T05:14:11;6.93;;;6.13;;
21152;SDS011;10734;44.792;20.482;2022-07-29T05:16:39;8.77;;;6.72;;
21152;SDS011;10734;44.792;20.482;2022-07-29T05:19:06;12.18;;;6.78;;
21152;SDS011;10734;44.792;20.482;2022-07-29T05:21:39;7.38;;;6.20;;
21152;SDS011;10734;44.792;20.482;2022-07-29T05:24:06;8.02;;;6.28;;
21152;SDS011;10734;44.792;20.482;2022-07-29T05:26:32;9.30;;;5.55;;
21152;SDS011;10734;44.792;20.482;2022-07-29T05:28:59;9.57;;;6.07;;
21152;SDS011;10734;44.792;20.482;2022-07-29T05:31:25;10.90;;;6.25;;
21152;SDS011;10734;44.792;20.482;2022-07-29T05:33:52;6.80;;;5.70;;
21152;SDS011;10734;44.792;20.482;2022-07-29T05:36:19;6.05;;;5.45;;
21152;SDS011;10734;44.792;20.482;2022-07-29T05:38:46;8.05;;;6.20;;
21152;SDS011;10734;44.792;20.482;2022-07-29T05:41:12;9.75;;;6.35;;
21152;SDS011;10734;44.792;20.482;2022-07-29T05:43:39;7.90;;;5.43;;
21152;SDS011;10734;44.792;20.482;2022-07-29T05:46:05;7.85;;;5.60;;
21152;SDS011;10734;44.792;20.482;2022-07-29T05:48:32;8.05;;;5.85;;
21152;SDS011;10734;44.792;20.482;2022-07-29T05:50:59;8.18;;;5.95;;
21152;SDS011;10734;44.792;20.482;2022-07-29T05:53:26;7.32;;;5.38;;
21152;SDS011;10734;44.792;20.482;2022-07-29T05:55:53;9.77;;;5.93;;
21152;SDS011;10734;44.792;20.482;2022-07-29T05:58:20;5.50;;;4.93;;
21152;SDS011;10734;44.792;20.482;2022-07-29T06:00:46;7.43;;;5.30;;
21152;SDS011;10734;44.792;20.482;2022-07-29T06:03:13;10.77;;;5.47;;
21152;SDS011;10734;44.792;20.482;2022-07-29T06:05:40;5.88;;;5.13;;
21152;SDS011;10734;44.792;20.482;2022-07-29T06:08:07;9.23;;;5.40;;
21152;SDS011;10734;44.792;20.482;2022-07-29T06:10:36;8.05;;;5.43;;
21152;SDS011;10734;44.792;20.482;2022-07-29T06:13:03;7.38;;;4.72;;
21152;SDS011;10734;44.792;20.482;2022-07-29T06:15:30;8.88;;;5.30;;
21152;SDS011;10734;44.792;20.482;2022-07-29T06:17:56;6.88;;;4.47;;
21152;SDS011;10734;44.792;20.482;2022-07-29T06:20:27;8.15;;;4.82;;
21152;SDS011;10734;44.792;20.482;2022-07-29T06:22:56;7.70;;;4.70;;
21152;SDS011;10734;44.792;20.482;2022-07-29T06:25:23;6.78;;;4.50;;
21152;SDS011;10734;44.792;20.482;2022-07-29T06:27:50;10.30;;;4.60;;
21152;SDS011;10734;44.792;20.482;2022-07-29T06:30:17;9.45;;;4.47;;
21152;SDS011;10734;44.792;20.482;2022-07-29T06:32:43;5.82;;;4.70;;
21152;SDS011;10734;44.792;20.482;2022-07-29T06:35:10;7.45;;;4.50;;
21152;SDS011;10734;44.792;20.482;2022-07-29T06:37:56;9.48;;;4.57;;
21152;SDS011;10734;44.792;20.482;2022-07-29T06:40:25;7.47;;;5.07;;
21152;SDS011;10734;44.792;20.482;2022-07-29T06:43:28;7.10;;;4.32;;
21152;SDS011;10734;44.792;20.482;2022-07-29T06:45:59;6.00;;;4.95;;
21152;SDS011;10734;44.792;20.482;2022-07-29T06:48:27;8.77;;;4.90;;
21152;SDS011;10734;44.792;20.482;2022-07-29T06:50:55;6.53;;;4.25;;
21152;SDS011;10734;44.792;20.482;2022-07-29T06:53:22;5.65;;;4.78;;
21152;SDS011;10734;44.792;20.482;2022-07-29T06:55:48;9.63;;;5.07;;
21152;SDS011;10734;44.792;20.482;2022-07-29T06:58:15;6.28;;;4.10;;
21152;SDS011;10734;44.792;20.482;2022-07-29T07:00:44;8.70;;;5.00;;
21152;SDS011;10734;44.792;20.482;2022-07-29T07:03:11;6.20;;;4.47;;
21152;SDS011;10734;44.792;20.482;2022-07-29T07:05:37;7.25;;;4.50;;
21152;SDS011;10734;44.792;20.482;2022-07-29T07:08:05;4.93;;;3.88;;
21152;SDS011;10734;44.792;20.482;2022-07-29T07:10:32;8.82;;;4.18;;
21152;SDS011;10734;44.792;20.482;2022-07-29T07:12:59;6.47;;;4.07;;
21152;SDS011;10734;44.792;20.482;2022-07-29T07:15:27;11.15;;;4.28;;
21152;SDS011;10734;44.792;20.482;2022-07-29T07:18:04;4.90;;;4.22;;
21152;SDS011;10734;44.792;20.482;2022-07-29T07:20:32;5.65;;;4.22;;
21152;SDS011;10734;44.792;20.482;2022-07-29T07:23:00;6.10;;;4.70;;
21152;SDS011;10734;44.792;20.482;2022-07-29T07:25:26;5.55;;;4.25;;
21152;SDS011;10734;44.792;20.482;2022-07-29T07:27:54;9.07;;;4.53;;
21152;SDS011;10734;44.792;20.482;2022-07-29T07:30:20;9.18;;;4.57;;
21152;SDS011;10734;44.792;20.482;2022-07-29T07:32:47;6.97;;;5.07;;
21152;SDS011;10734;44.792;20.482;2022-07-29T07:35:14;5.85;;;4.32;;
21152;SDS011;10734;44.792;20.482;2022-07-29T07:37:40;6.45;;;4.40;;
21152;SDS011;10734;44.792;20.482;2022-07-29T07:40:08;6.60;;;4.43;;
21152;SDS011;10734;44.792;20.482;2022-07-29T07:42:43;7.05;;;4.38;;
21152;SDS011;10734;44.792;20.482;2022-07-29T07:45:11;5.32;;;4.72;;
21152;SDS011;10734;44.792;20.482;2022-07-29T07:47:41;6.03;;;4.60;;
21152;SDS011;10734;44.792;20.482;2022-07-29T07:50:09;11.07;;;5.10;;
21152;SDS011;10734;44.792;20.482;2022-07-29T07:52:53;7.45;;;4.40;;
21152;SDS011;10734;44.792;20.482;2022-07-29T07:55:23;5.20;;;4.60;;
21152;SDS011;10734;44.792;20.482;2022-07-29T07:57:52;5.25;;;4.22;;
21152;SDS011;10734;44.792;20.482;2022-07-29T08:00:19;7.00;;;4.35;;
21152;SDS011;10734;44.792;20.482;2022-07-29T08:02:48;4.93;;;4.43;;
21152;SDS011;10734;44.792;20.482;2022-07-29T08:05:16;10.82;;;4.95;;
21152;SDS011;10734;44.792;20.482;2022-07-29T08:07:45;5.50;;;4.35;;
21152;SDS011;10734;44.792;20.482;2022-07-29T08:10:13;10.98;;;4.60;;
21152;SDS011;10734;44.792;20.482;2022-07-29T08:13:02;5.38;;;4.35;;
21152;SDS011;10734;44.792;20.482;2022-07-29T08:15:33;5.35;;;4.53;;
21152;SDS011;10734;44.792;20.482;2022-07-29T08:18:00;5.45;;;4.55;;
21152;SDS011;10734;44.792;20.482;2022-07-29T08:20:34;5.32;;;4.82;;
21152;SDS011;10734;44.792;20.482;2022-07-29T08:23:02;9.15;;;4.47;;
21152;SDS011;10734;44.792;20.482;2022-07-29T08:25:30;5.38;;;4.85;;
21152;SDS011;10734;44.792;20.482;2022-07-29T08:27:59;7.55;;;4.65;;
21152;SDS011;10734;44.792;20.482;2022-07-29T08:30:26;6.38;;;4.97;;
21152;SDS011;10734;44.792;20.482;2022-07-29T08:32:53;6.05;;;4.90;;
21152;SDS011;10734;44.792;20.482;2022-07-29T08:35:22;5.20;;;4.68;;
21152;SDS011;10734;44.792;20.482;2022-07-29T08:37:49;6.50;;;5.53;;
21152;SDS011;10734;44.792;20.482;2022-07-29T08:40:16;5.68;;;5.18;;
21152;SDS011;10734;44.792;20.482;2022-07-29T08:42:44;6.43;;;4.97;;
21152;SDS011;10734;44.792;20.482;2022-07-29T08:45:11;5.68;;;4.57;;
21152;SDS011;10734;44.792;20.482;2022-07-29T08:47:39;6.20;;;4.55;;
21152;SDS011;10734;44.792;20.482;2022-07-29T08:50:06;8.88;;;5.03;;
21152;SDS011;10734;44.792;20.482;2022-07-29T08:52:38;8.63;;;4.90;;
21152;SDS011;10734;44.792;20.482;2022-07-29T08:55:07;7.30;;;4.60;;
21152;SDS011;10734;44.792;20.482;2022-07-29T08:57:35;6.55;;;4.32;;
21152;SDS011;10734;44.792;20.482;2022-07-29T09:00:05;8.32;;;4.72;;
21152;SDS011;10734;44.792;20.482;2022-07-29T09:02:41;6.30;;;4.75;;
21152;SDS011;10734;44.792;20.482;2022-07-29T09:05:13;5.78;;;4.75;;
21152;SDS011;10734;44.792;20.482;2022-07-29T09:07:40;9.23;;;4.82;;
21152;SDS011;10734;44.792;20.482;2022-07-29T09:10:09;6.10;;;4.70;;
21152;SDS011;10734;44.792;20.482;2022-07-29T09:12:36;7.82;;;5.13;;
21152;SDS011;10734;44.792;20.482;2022-07-29T09:15:03;6.93;;;5.20;;
21152;SDS011;10734;44.792;20.482;2022-07-29T09:17:40;7.55;;;4.65;;
21152;SDS011;10734;44.792;20.482;2022-07-29T09:20:17;6.70;;;4.82;;
21152;SDS011;10734;44.792;20.482;2022-07-29T09:22:45;7.80;;;4.80;;
21152;SDS011;10734;44.792;20.482;2022-07-29T09:28:09;8.57;;;4.90;;
21152;SDS011;10734;44.792;20.482;2022-07-29T09:31:11;6.10;;;4.78;;
21152;SDS011;10734;44.792;20.482;2022-07-29T09:33:32;8.63;;;4.50;;
21152;SDS011;10734;44.792;20.482;2022-07-29T09:36:05;6.28;;;4.50;;
21152;SDS011;10734;44.792;20.482;2022-07-29T09:38:33;6.22;;;4.35;;
21152;SDS011;10734;44.792;20.482;2022-07-29T09:41:04;5.07;;;4.57;;
21152;SDS011;10734;44.792;20.482;2022-07-29T09:43:32;6.10;;;5.30;;
21152;SDS011;10734;44.792;20.482;2022-07-29T09:46:12;7.85;;;5.00;;
21152;SDS011;10734;44.792;20.482;2022-07-29T09:48:39;7.78;;;4.72;;
21152;SDS011;10734;44.792;20.482;2022-07-29T09:51:16;4.90;;;4.43;;
21152;SDS011;10734;44.792;20.482;2022-07-29T09:53:55;4.80;;;4.38;;
21152;SDS011;10734;44.792;20.482;2022-07-29T09:56:40;6.20;;;5.60;;
21152;SDS011;10734;44.792;20.482;2022-07-29T09:59:09;5.03;;;4.53;;
21152;SDS011;10734;44.792;20.482;2022-07-29T10:01:38;6.28;;;4.65;;
21152;SDS011;10734;44.792;20.482;2022-07-29T10:04:04;4.88;;;4.30;;
21152;SDS011;10734;44.792;20.482;2022-07-29T10:06:31;5.28;;;4.40;;
21152;SDS011;10734;44.792;20.482;2022-07-29T10:09:10;5.10;;;4.60;;
21152;SDS011;10734;44.792;20.482;2022-07-29T10:11:37;7.50;;;4.85;;
21152;SDS011;10734;44.792;20.482;2022-07-29T10:14:15;6.68;;;4.72;;
21152;SDS011;10734;44.792;20.482;2022-07-29T10:16:42;5.07;;;4.50;;
21152;SDS011;10734;44.792;20.482;2022-07-29T10:19:09;5.10;;;4.60;;
21152;SDS011;10734;44.792;20.482;2022-07-29T10:21:36;5.22;;;4.50;;
21152;SDS011;10734;44.792;20.482;2022-07-29T10:24:05;5.20;;;4.72;;
21152;SDS011;10734;44.792;20.482;2022-07-29T10:26:40;4.85;;;4.35;;
21152;SDS011;10734;44.792;20.482;2022-07-29T10:29:07;6.97;;;4.20;;
21152;SDS011;10734;44.792;20.482;2022-07-29T10:31:43;5.20;;;4.78;;
21152;SDS011;10734;44.792;20.482;2022-07-29T10:34:36;7.00;;;4.47;;
21152;SDS011;10734;44.792;20.482;2022-07-29T10:37:22;8.80;;;5.20;;
21152;SDS011;10734;44.792;20.482;2022-07-29T10:43:31;6.47;;;5.13;;
21152;SDS011;10734;44.792;20.482;2022-07-29T10:45:59;8.82;;;5.50;;
21152;SDS011;10734;44.792;20.482;2022-07-29T10:48:26;9.75;;;6.05;;
21152;SDS011;10734;44.792;20.482;2022-07-29T10:53:50;8.25;;;5.13;;
21152;SDS011;10734;44.792;20.482;2022-07-29T10:56:29;9.82;;;5.57;;
21152;SDS011;10734;44.792;20.482;2022-07-29T11:01:48;7.13;;;5.57;;
21152;SDS011;10734;44.792;20.482;2022-07-29T11:07:09;7.13;;;5.40;;
21152;SDS011;10734;44.792;20.482;2022-07-29T11:09:40;7.40;;;5.28;;
21152;SDS011;10734;44.792;20.482;2022-07-29T11:15:05;5.72;;;5.30;;
21152;SDS011;10734;44.792;20.482;2022-07-29T11:45:03;6.13;;;5.47;;
21152;SDS011;10734;44.792;20.482;2022-07-29T11:47:56;7.55;;;6.10;;
21152;SDS011;10734;44.792;20.482;2022-07-29T11:50:44;6.10;;;5.35;;
21152;SDS011;10734;44.792;20.482;2022-07-29T11:53:13;5.82;;;5.32;;
21152;SDS011;10734;44.792;20.482;2022-07-29T11:55:41;6.72;;;6.13;;
21152;SDS011;10734;44.792;20.482;2022-07-29T11:58:20;6.28;;;5.60;;
21152;SDS011;10734;44.792;20.482;2022-07-29T12:00:51;6.90;;;6.30;;
21152;SDS011;10734;44.792;20.482;2022-07-29T12:03:24;6.57;;;5.97;;
21152;SDS011;10734;44.792;20.482;2022-07-29T12:06:02;7.13;;;5.90;;
21152;SDS011;10734;44.792;20.482;2022-07-29T12:08:42;6.70;;;5.68;;
21152;SDS011;10734;44.792;20.482;2022-07-29T12:11:17;7.00;;;5.72;;
21152;SDS011;10734;44.792;20.482;2022-07-29T12:13:46;6.03;;;5.43;;
21152;SDS011;10734;44.792;20.482;2022-07-29T12:16:14;6.00;;;5.40;;
21152;SDS011;10734;44.792;20.482;2022-07-29T12:19:03;7.57;;;5.93;;
21152;SDS011;10734;44.792;20.482;2022-07-29T12:21:45;6.25;;;5.68;;
21152;SDS011;10734;44.792;20.482;2022-07-29T12:24:24;8.43;;;5.80;;
21152;SDS011;10734;44.792;20.482;2022-07-29T12:26:56;9.27;;;5.82;;
21152;SDS011;10734;44.792;20.482;2022-07-29T12:29:23;7.95;;;5.88;;
21152;SDS011;10734;44.792;20.482;2022-07-29T12:32:00;7.75;;;6.00;;
21152;SDS011;10734;44.792;20.482;2022-07-29T12:34:27;7.55;;;6.03;;
21152;SDS011;10734;44.792;20.482;2022-07-29T12:36:56;8.18;;;6.30;;
21152;SDS011;10734;44.792;20.482;2022-07-29T12:39:23;8.65;;;6.55;;
21152;SDS011;10734;44.792;20.482;2022-07-29T12:41:52;6.75;;;6.15;;
21152;SDS011;10734;44.792;20.482;2022-07-29T12:44:46;10.18;;;6.40;;
21152;SDS011;10734;44.792;20.482;2022-07-29T12:47:14;6.53;;;5.93;;
21152;SDS011;10734;44.792;20.482;2022-07-29T12:49:42;9.73;;;6.50;;
21152;SDS011;10734;44.792;20.482;2022-07-29T12:52:28;6.47;;;5.85;;
21152;SDS011;10734;44.792;20.482;2022-07-29T12:54:59;6.70;;;5.90;;
21152;SDS011;10734;44.792;20.482;2022-07-29T12:57:27;9.13;;;6.10;;
21152;SDS011;10734;44.792;20.482;2022-07-29T13:02:30;6.40;;;5.80;;
21152;SDS011;10734;44.792;20.482;2022-07-29T13:05:00;5.80;;;5.30;;
21152;SDS011;10734;44.792;20.482;2022-07-29T13:07:31;9.30;;;5.70;;
21152;SDS011;10734;44.792;20.482;2022-07-29T13:10:19;10.25;;;7.00;;
21152;SDS011;10734;44.792;20.482;2022-07-29T13:13:03;6.65;;;6.05;;
21152;SDS011;10734;44.792;20.482;2022-07-29T13:15:29;9.07;;;6.15;;
21152;SDS011;10734;44.792;20.482;2022-07-29T13:17:56;6.90;;;6.00;;
21152;SDS011;10734;44.792;20.482;2022-07-29T13:20:24;6.88;;;6.28;;
21152;SDS011;10734;44.792;20.482;2022-07-29T13:22:56;8.65;;;6.07;;
21152;SDS011;10734;44.792;20.482;2022-07-29T13:25:29;6.95;;;6.45;;
21152;SDS011;10734;44.792;20.482;2022-07-29T13:27:58;6.85;;;6.18;;
21152;SDS011;10734;44.792;20.482;2022-07-29T13:30:26;9.35;;;8.45;;
21152;SDS011;10734;44.792;20.482;2022-07-29T13:32:53;9.05;;;6.75;;
21152;SDS011;10734;44.792;20.482;2022-07-29T13:35:21;7.07;;;6.28;;
21152;SDS011;10734;44.792;20.482;2022-07-29T13:37:47;7.57;;;6.75;;
21152;SDS011;10734;44.792;20.482;2022-07-29T13:40:17;7.47;;;5.70;;
21152;SDS011;10734;44.792;20.482;2022-07-29T13:42:43;6.40;;;5.82;;
21152;SDS011;10734;44.792;20.482;2022-07-29T13:45:12;6.25;;;5.63;;
21152;SDS011;10734;44.792;20.482;2022-07-29T13:47:39;6.72;;;5.82;;
21152;SDS011;10734;44.792;20.482;2022-07-29T13:50:12;6.50;;;5.90;;
21152;SDS011;10734;44.792;20.482;2022-07-29T13:52:39;6.32;;;5.80;;
21152;SDS011;10734;44.792;20.482;2022-07-29T13:55:06;6.57;;;6.07;;
21152;SDS011;10734;44.792;20.482;2022-07-29T13:57:34;6.60;;;6.00;;
21152;SDS011;10734;44.792;20.482;2022-07-29T14:00:01;8.20;;;6.78;;
21152;SDS011;10734;44.792;20.482;2022-07-29T14:02:28;7.28;;;6.53;;
21152;SDS011;10734;44.792;20.482;2022-07-29T14:04:55;7.50;;;6.55;;
21152;SDS011;10734;44.792;20.482;2022-07-29T14:07:22;11.35;;;6.35;;
21152;SDS011;10734;44.792;20.482;2022-07-29T14:09:49;7.55;;;5.93;;
21152;SDS011;10734;44.792;20.482;2022-07-29T14:12:16;7.07;;;6.47;;
21152;SDS011;10734;44.792;20.482;2022-07-29T14:14:43;6.75;;;6.03;;
21152;SDS011;10734;44.792;20.482;2022-07-29T14:17:12;8.95;;;6.47;;
21152;SDS011;10734;44.792;20.482;2022-07-29T14:19:39;6.07;;;5.50;;
21152;SDS011;10734;44.792;20.482;2022-07-29T14:22:06;7.88;;;6.25;;
21152;SDS011;10734;44.792;20.482;2022-07-29T14:24:36;6.85;;;6.25;;
21152;SDS011;10734;44.792;20.482;2022-07-29T14:27:04;8.55;;;6.78;;
21152;SDS011;10734;44.792;20.482;2022-07-29T14:29:32;6.28;;;5.72;;
21152;SDS011;10734;44.792;20.482;2022-07-29T14:32:04;6.32;;;5.80;;
21152;SDS011;10734;44.792;20.482;2022-07-29T14:34:32;7.90;;;6.35;;
21152;SDS011;10734;44.792;20.482;2022-07-29T14:36:59;8.82;;;6.28;;
21152;SDS011;10734;44.792;20.482;2022-07-29T14:39:26;10.30;;;6.45;;
21152;SDS011;10734;44.792;20.482;2022-07-29T14:41:57;7.35;;;6.65;;
21152;SDS011;10734;44.792;20.482;2022-07-29T14:44:27;6.75;;;6.15;;
21152;SDS011;10734;44.792;20.482;2022-07-29T14:47:00;8.30;;;6.38;;
21152;SDS011;10734;44.792;20.482;2022-07-29T14:49:33;8.68;;;6.25;;
21152;SDS011;10734;44.792;20.482;2022-07-29T14:52:01;6.95;;;5.68;;
21152;SDS011;10734;44.792;20.482;2022-07-29T14:54:27;6.50;;;5.85;;
21152;SDS011;10734;44.792;20.482;2022-07-29T14:56:54;6.63;;;6.03;;
21152;SDS011;10734;44.792;20.482;2022-07-29T14:59:23;9.35;;;6.03;;
21152;SDS011;10734;44.792;20.482;2022-07-29T15:01:50;23.08;;;6.38;;
21152;SDS011;10734;44.792;20.482;2022-07-29T15:04:17;7.70;;;5.95;;
21152;SDS011;10734;44.792;20.482;2022-07-29T15:06:44;10.00;;;6.45;;
21152;SDS011;10734;44.792;20.482;2022-07-29T15:09:11;6.78;;;6.13;;
21152;SDS011;10734;44.792;20.482;2022-07-29T15:11:38;6.88;;;6.18;;
21152;SDS011;10734;44.792;20.482;2022-07-29T15:14:05;7.20;;;6.45;;
21152;SDS011;10734;44.792;20.482;2022-07-29T15:16:32;8.43;;;5.70;;
21152;SDS011;10734;44.792;20.482;2022-07-29T15:19:01;9.80;;;6.13;;
21152;SDS011;10734;44.792;20.482;2022-07-29T15:21:27;6.53;;;5.85;;
21152;SDS011;10734;44.792;20.482;2022-07-29T15:23:54;5.85;;;5.35;;
21152;SDS011;10734;44.792;20.482;2022-07-29T15:26:21;6.93;;;6.15;;
21152;SDS011;10734;44.792;20.482;2022-07-29T15:28:48;8.20;;;6.20;;
21152;SDS011;10734;44.792;20.482;2022-07-29T15:31:14;6.60;;;6.00;;
21152;SDS011;10734;44.792;20.482;2022-07-29T15:33:41;7.75;;;6.95;;
21152;SDS011;10734;44.792;20.482;2022-07-29T15:36:08;7.93;;;6.70;;
21152;SDS011;10734;44.792;20.482;2022-07-29T15:38:34;9.05;;;6.55;;
21152;SDS011;10734;44.792;20.482;2022-07-29T15:41:07;6.50;;;5.80;;
21152;SDS011;10734;44.792;20.482;2022-07-29T15:43:34;11.35;;;6.65;;
21152;SDS011;10734;44.792;20.482;2022-07-29T15:46:01;7.78;;;6.75;;
21152;SDS011;10734;44.792;20.482;2022-07-29T15:48:46;7.50;;;6.80;;